Time;durP1;ratioP1;P1;durP2;ratioP2;P2;SDS_P1;SDS_P2;PMS_P1;PMS_P2;Temp;Humidity;BMP_temperature;BMP_pressure;BME280_temperature;BME280_humidity;BME280_pressure;Samples;Min_cycle;Max_cycle;Signal;HPM_P1;HPM_P2
2023/04/16 00:01:43;;;;;;;2.10;1.90;;;;;;;;;;5100493;28;20242;-64
2023/04/16 00:04:11;;;;;;;2.30;2.10;;;;;;;;;;5093192;28;20240;-65
2023/04/16 00:06:39;;;;;;;1.90;1.80;;;;;;;;;;5100432;28;20685;-65
2023/04/16 00:09:07;;;;;;;4.60;2.20;;;;;;;;;;5100303;28;20703;-65
2023/04/16 00:11:36;;;;;;;3.87;2.60;;;;;;;;;;5100258;28;20572;-65
2023/04/16 00:14:04;;;;;;;3.50;2.30;;;;;;;;;;5100372;28;20644;-65
2023/04/16 00:16:32;;;;;;;2.40;1.97;;;;;;;;;;5099704;28;20315;-65
2023/04/16 00:19:00;;;;;;;2.43;2.20;;;;;;;;;;5100082;28;20611;-65
2023/04/16 00:21:28;;;;;;;3.30;2.33;;;;;;;;;;5100341;28;20202;-65
2023/04/16 00:23:56;;;;;;;3.57;2.30;;;;;;;;;;5090504;28;20237;-65
2023/04/16 00:26:24;;;;;;;2.33;2.20;;;;;;;;;;5079716;28;20241;-65
2023/04/16 00:28:54;;;;;;;2.30;2.10;;;;;;;;;;5079849;28;20679;-65
2023/04/16 00:31:26;;;;;;;2.07;1.93;;;;;;;;;;5079180;28;20322;-65
2023/04/16 00:33:54;;;;;;;3.47;2.20;;;;;;;;;;5079664;28;20206;-65
2023/04/16 00:36:23;;;;;;;4.00;2.70;;;;;;;;;;5079808;28;20206;-65
2023/04/16 00:38:51;;;;;;;3.13;2.10;;;;;;;;;;5079658;28;20234;-65
2023/04/16 00:41:19;;;;;;;2.63;2.17;;;;;;;;;;5098482;28;20716;-65
2023/04/16 00:43:47;;;;;;;4.07;3.10;;;;;;;;;;5100015;28;20212;-65
2023/04/16 00:46:16;;;;;;;3.73;2.57;;;;;;;;;;5098808;28;20231;-65
2023/04/16 00:48:44;;;;;;;2.60;2.40;;;;;;;;;;5099787;28;20258;-65
2023/04/16 00:51:12;;;;;;;2.67;2.40;;;;;;;;;;5099649;28;20661;-65
2023/04/16 00:53:40;;;;;;;3.43;2.60;;;;;;;;;;5099362;28;20566;-65
2023/04/16 00:56:09;;;;;;;5.53;2.30;;;;;;;;;;5099732;28;20206;-65
2023/04/16 00:58:37;;;;;;;2.50;2.30;;;;;;;;;;5099352;28;20228;-65
2023/04/16 01:01:05;;;;;;;4.67;2.70;;;;;;;;;;5099351;28;20221;-65
2023/04/16 01:03:38;;;;;;;2.53;2.33;;;;;;;;;;5099220;28;20205;-65
2023/04/16 01:06:06;;;;;;;4.03;2.43;;;;;;;;;;5099713;28;20193;-65
2023/04/16 01:08:34;;;;;;;4.53;2.57;;;;;;;;;;5099493;28;20209;-65
2023/04/16 01:11:03;;;;;;;4.27;2.40;;;;;;;;;;5099346;28;20261;-65
2023/04/16 01:13:31;;;;;;;3.23;2.80;;;;;;;;;;5099372;28;20209;-65
2023/04/16 01:15:59;;;;;;;2.33;2.23;;;;;;;;;;5103341;28;20271;-65
2023/04/16 01:18:27;;;;;;;2.93;2.63;;;;;;;;;;5104628;28;20193;-65
2023/04/16 01:20:56;;;;;;;4.53;2.90;;;;;;;;;;5104865;28;20244;-65
2023/04/16 01:23:24;;;;;;;4.30;2.80;;;;;;;;;;5103284;28;20565;-65
2023/04/16 01:25:53;;;;;;;4.93;2.93;;;;;;;;;;5107784;28;20247;-65
2023/04/16 01:28:21;;;;;;;3.13;2.80;;;;;;;;;;5107489;28;20225;-65
2023/04/16 01:30:49;;;;;;;2.87;2.67;;;;;;;;;;5103400;28;20278;-65
2023/04/16 01:33:18;;;;;;;5.83;2.53;;;;;;;;;;5102007;28;20288;-65
2023/04/16 01:35:46;;;;;;;4.13;3.10;;;;;;;;;;5085706;28;20212;-65
2023/04/16 01:38:16;;;;;;;5.73;3.13;;;;;;;;;;5098887;28;20288;-65
2023/04/16 01:40:43;;;;;;;4.50;3.27;;;;;;;;;;5104496;28;20213;-65
2023/04/16 01:43:11;;;;;;;5.80;3.90;;;;;;;;;;5106710;28;20202;-65
2023/04/16 01:45:40;;;;;;;4.70;3.50;;;;;;;;;;5104685;28;20631;-65
2023/04/16 01:48:08;;;;;;;3.87;3.47;;;;;;;;;;5101020;28;20259;-65
2023/04/16 01:50:36;;;;;;;5.47;3.50;;;;;;;;;;5108977;28;20216;-65
2023/04/16 01:53:04;;;;;;;7.90;6.20;;;;;;;;;;5107390;28;20287;-65
2023/04/16 01:55:34;;;;;;;5.47;4.60;;;;;;;;;;5106949;28;20219;-65
2023/04/16 01:58:03;;;;;;;4.10;3.77;;;;;;;;;;5099192;28;20245;-65
2023/04/16 02:00:31;;;;;;;4.63;3.67;;;;;;;;;;5104513;28;20710;-65
2023/04/16 02:02:59;;;;;;;8.27;4.30;;;;;;;;;;5091991;28;20256;-65
2023/04/16 02:05:28;;;;;;;4.73;3.83;;;;;;;;;;5085592;28;20197;-65
2023/04/16 02:07:56;;;;;;;5.33;3.77;;;;;;;;;;5086962;28;20628;-65
2023/04/16 02:10:24;;;;;;;5.87;3.87;;;;;;;;;;5086233;28;20248;-65
2023/04/16 02:12:53;;;;;;;6.73;3.77;;;;;;;;;;5086810;28;20565;-65
2023/04/16 02:15:24;;;;;;;4.97;3.73;;;;;;;;;;5100484;28;20229;-65
2023/04/16 02:17:55;;;;;;;4.87;3.60;;;;;;;;;;5097285;28;20205;-64
2023/04/16 02:20:23;;;;;;;4.43;4.00;;;;;;;;;;5097466;28;20596;-65
2023/04/16 02:22:52;;;;;;;6.87;4.23;;;;;;;;;;5097829;28;20205;-65
2023/04/16 02:25:20;;;;;;;4.63;4.23;;;;;;;;;;5097910;28;20209;-65
2023/04/16 02:27:47;;;;;;;3.87;3.57;;;;;;;;;;5097729;28;20296;-65
2023/04/16 02:30:17;;;;;;;4.20;3.73;;;;;;;;;;5097509;28;20221;-65
2023/04/16 02:32:45;;;;;;;5.23;4.03;;;;;;;;;;5097635;28;20570;-65
2023/04/16 02:35:13;;;;;;;5.27;4.30;;;;;;;;;;5097638;28;20710;-65
2023/04/16 02:37:41;;;;;;;4.83;4.07;;;;;;;;;;5097740;28;20260;-64
2023/04/16 02:40:10;;;;;;;4.77;4.13;;;;;;;;;;5097535;28;20249;-65
2023/04/16 02:42:38;;;;;;;6.33;4.30;;;;;;;;;;5086698;28;20202;-65
2023/04/16 02:45:06;;;;;;;6.40;4.07;;;;;;;;;;5097644;28;20241;-65
2023/04/16 02:47:35;;;;;;;4.20;3.87;;;;;;;;;;5097630;28;20273;-65
2023/04/16 02:50:04;;;;;;;6.27;4.10;;;;;;;;;;5097750;28;20236;-65
2023/04/16 02:52:32;;;;;;;4.97;4.00;;;;;;;;;;5097646;28;20232;-65
2023/04/16 02:55:00;;;;;;;4.77;4.30;;;;;;;;;;5097802;28;20206;-65
2023/04/16 02:57:28;;;;;;;7.30;4.37;;;;;;;;;;5097604;28;20674;-65
2023/04/16 02:59:56;;;;;;;4.87;4.30;;;;;;;;;;5097251;28;20260;-65
2023/04/16 03:02:24;;;;;;;5.47;4.00;;;;;;;;;;5097507;28;20202;-65
2023/04/16 03:04:53;;;;;;;4.57;4.10;;;;;;;;;;5095659;28;20649;-65
2023/04/16 03:07:21;;;;;;;7.03;4.20;;;;;;;;;;5077339;28;20677;-65
2023/04/16 03:09:49;;;;;;;7.67;4.53;;;;;;;;;;5081073;28;20240;-65
2023/04/16 03:12:17;;;;;;;5.27;4.70;;;;;;;;;;5081195;28;20656;-65
2023/04/16 03:14:45;;;;;;;6.97;4.67;;;;;;;;;;5081075;28;20205;-64
2023/04/16 03:17:13;;;;;;;4.47;4.07;;;;;;;;;;5080969;28;20237;-65
2023/04/16 03:19:41;;;;;;;4.13;3.83;;;;;;;;;;5080964;28;20226;-65
2023/04/16 03:22:10;;;;;;;4.43;4.03;;;;;;;;;;5089258;28;20197;-65
2023/04/16 03:24:38;;;;;;;5.47;4.10;;;;;;;;;;5101566;28;20206;-65
2023/04/16 03:27:06;;;;;;;5.23;4.03;;;;;;;;;;5101238;28;20237;-65
2023/04/16 03:29:36;;;;;;;4.93;4.43;;;;;;;;;;5101175;28;20252;-65
2023/04/16 03:32:04;;;;;;;4.53;4.13;;;;;;;;;;5100991;28;20707;-65
2023/04/16 03:34:32;;;;;;;6.10;4.03;;;;;;;;;;5101158;28;20241;-65
2023/04/16 03:37:00;;;;;;;4.40;4.00;;;;;;;;;;5101251;28;20201;-65
2023/04/16 03:39:29;;;;;;;5.07;4.60;;;;;;;;;;5101199;28;20225;-65
2023/04/16 03:41:57;;;;;;;4.57;4.17;;;;;;;;;;5093266;28;20206;-65
2023/04/16 03:44:25;;;;;;;4.67;4.17;;;;;;;;;;5101018;28;20241;-65
2023/04/16 03:46:53;;;;;;;5.17;4.20;;;;;;;;;;5100484;28;20216;-65
2023/04/16 03:49:21;;;;;;;5.13;4.37;;;;;;;;;;5100952;28;20229;-65
2023/04/16 03:51:49;;;;;;;4.10;3.80;;;;;;;;;;5100839;28;20659;-64
2023/04/16 03:54:17;;;;;;;8.10;4.67;;;;;;;;;;5100770;28;20205;-65
2023/04/16 03:56:50;;;;;;;5.87;4.77;;;;;;;;;;5100732;28;20653;-65
2023/04/16 03:59:18;;;;;;;5.47;4.40;;;;;;;;;;5100786;28;20241;-65
2023/04/16 04:01:46;;;;;;;6.63;5.03;;;;;;;;;;5100542;28;20226;-65
2023/04/16 04:04:15;;;;;;;6.30;5.03;;;;;;;;;;5100408;28;20614;-64
2023/04/16 04:06:45;;;;;;;5.13;4.63;;;;;;;;;;5100466;28;20213;-65
2023/04/16 04:09:13;;;;;;;5.97;4.30;;;;;;;;;;5100333;28;20288;-65
2023/04/16 04:11:41;;;;;;;4.77;4.23;;;;;;;;;;5100263;28;20312;-65
2023/04/16 04:14:11;;;;;;;5.27;4.77;;;;;;;;;;5100418;28;20260;-65
2023/04/16 04:16:39;;;;;;;5.27;4.93;;;;;;;;;;5096571;28;20646;-65
2023/04/16 04:19:07;;;;;;;6.80;4.80;;;;;;;;;;5091588;28;20568;-65
2023/04/16 04:21:37;;;;;;;5.67;4.97;;;;;;;;;;5099587;28;20651;-65
2023/04/16 04:24:05;;;;;;;10.47;4.90;;;;;;;;;;5100265;28;20296;-65
2023/04/16 04:26:32;;;;;;;5.57;4.93;;;;;;;;;;5100355;28;20343;-65
2023/04/16 04:29:02;;;;;;;5.43;4.20;;;;;;;;;;5100038;28;20622;-65
2023/04/16 04:31:31;;;;;;;5.13;4.57;;;;;;;;;;5099712;28;20296;-65
2023/04/16 04:33:59;;;;;;;5.27;4.77;;;;;;;;;;5097431;28;20695;-65
2023/04/16 04:36:27;;;;;;;8.77;5.07;;;;;;;;;;5100125;28;20201;-65
2023/04/16 04:38:55;;;;;;;7.13;5.20;;;;;;;;;;5100097;28;20237;-65
2023/04/16 04:41:23;;;;;;;6.37;4.83;;;;;;;;;;5098119;28;20233;-65
2023/04/16 04:43:51;;;;;;;7.13;4.77;;;;;;;;;;5099808;28;20205;-65
2023/04/16 04:46:19;;;;;;;8.97;5.10;;;;;;;;;;5099660;28;20237;-65
2023/04/16 04:48:49;;;;;;;5.67;4.80;;;;;;;;;;5099878;28;20206;-65
2023/04/16 04:51:17;;;;;;;6.53;5.23;;;;;;;;;;5099938;28;20240;-65
2023/04/16 04:53:45;;;;;;;6.73;5.10;;;;;;;;;;5099783;28;20303;-65
2023/04/16 04:56:12;;;;;;;6.73;5.53;;;;;;;;;;5099657;28;20219;-65
2023/04/16 04:58:40;;;;;;;8.10;4.97;;;;;;;;;;5099685;28;20205;-65
2023/04/16 05:01:08;;;;;;;5.67;4.60;;;;;;;;;;5092614;28;20218;-65
2023/04/16 05:03:36;;;;;;;5.93;5.33;;;;;;;;;;5084648;28;20679;-65
2023/04/16 05:06:06;;;;;;;8.40;5.10;;;;;;;;;;5089349;28;20234;-65
2023/04/16 05:08:34;;;;;;;5.83;4.97;;;;;;;;;;5095913;28;20244;-65
2023/04/16 05:11:02;;;;;;;7.20;5.00;;;;;;;;;;5099014;28;20700;-65
2023/04/16 05:13:30;;;;;;;5.50;4.90;;;;;;;;;;5098802;28;20657;-65
2023/04/16 05:16:00;;;;;;;6.87;5.27;;;;;;;;;;5098417;28;20268;-65
2023/04/16 05:18:28;;;;;;;8.03;5.27;;;;;;;;;;5097386;28;20212;-65
2023/04/16 05:20:55;;;;;;;6.53;5.37;;;;;;;;;;5091267;28;20231;-66
2023/04/16 05:23:25;;;;;;;5.17;4.73;;;;;;;;;;5098940;28;20212;-66
2023/04/16 05:25:53;;;;;;;8.97;5.80;;;;;;;;;;5096563;28;20645;-65
2023/04/16 05:28:21;;;;;;;5.10;4.60;;;;;;;;;;5089140;28;20681;-65
2023/04/16 05:30:49;;;;;;;5.57;5.00;;;;;;;;;;5080762;28;20233;-65
2023/04/16 05:33:17;;;;;;;5.90;4.57;;;;;;;;;;5093950;28;20217;-64
2023/04/16 05:35:45;;;;;;;8.30;5.60;;;;;;;;;;5098470;28;20586;-66
2023/04/16 05:38:12;;;;;;;7.00;5.17;;;;;;;;;;5098734;28;20205;-65
2023/04/16 05:40:42;;;;;;;5.87;4.67;;;;;;;;;;5098453;28;20256;-65
2023/04/16 05:43:10;;;;;;;6.57;5.10;;;;;;;;;;5098641;28;20209;-65
2023/04/16 05:45:39;;;;;;;6.97;5.10;;;;;;;;;;5086441;28;20321;-65
2023/04/16 05:48:08;;;;;;;5.77;4.90;;;;;;;;;;5093471;28;20201;-65
2023/04/16 05:50:36;;;;;;;5.37;4.90;;;;;;;;;;5098204;28;20249;-66
2023/04/16 05:53:05;;;;;;;8.70;5.23;;;;;;;;;;5098197;28;20564;-65
2023/04/16 05:55:34;;;;;;;7.03;5.40;;;;;;;;;;5097244;28;20194;-65
2023/04/16 05:58:04;;;;;;;5.47;4.97;;;;;;;;;;5098122;28;20301;-64
2023/04/16 06:00:32;;;;;;;5.33;4.83;;;;;;;;;;5097939;28;20304;-64
2023/04/16 06:03:00;;;;;;;6.63;5.03;;;;;;;;;;5098039;28;20261;-64
2023/04/16 06:05:28;;;;;;;5.93;4.70;;;;;;;;;;5086893;28;20693;-65
2023/04/16 06:07:56;;;;;;;6.57;5.17;;;;;;;;;;5077606;28;20208;-65
2023/04/16 06:10:24;;;;;;;6.30;5.47;;;;;;;;;;5077564;28;20225;-65
2023/04/16 06:12:52;;;;;;;8.37;5.07;;;;;;;;;;5077956;28;20279;-65
2023/04/16 06:15:22;;;;;;;6.33;4.93;;;;;;;;;;5077231;28;20244;-64
2023/04/16 06:17:50;;;;;;;5.40;4.87;;;;;;;;;;5077506;28;20739;-65
2023/04/16 06:20:18;;;;;;;5.70;5.17;;;;;;;;;;5077526;28;20652;-65
2023/04/16 06:22:46;;;;;;;5.73;5.13;;;;;;;;;;5091286;28;20232;-65
2023/04/16 06:25:13;;;;;;;6.17;5.13;;;;;;;;;;5097986;28;20213;-65
2023/04/16 06:27:44;;;;;;;6.33;5.10;;;;;;;;;;5097712;28;20580;-65
2023/04/16 06:30:13;;;;;;;6.93;5.50;;;;;;;;;;5097370;28;20637;-64
2023/04/16 06:32:42;;;;;;;6.33;5.40;;;;;;;;;;5097532;28;20230;-65
2023/04/16 06:35:10;;;;;;;10.53;5.23;;;;;;;;;;5097672;28;20579;-65
2023/04/16 06:37:38;;;;;;;5.80;5.00;;;;;;;;;;5095064;28;20292;-65
2023/04/16 06:40:06;;;;;;;7.43;5.80;;;;;;;;;;5087672;28;20226;-65
2023/04/16 06:42:34;;;;;;;8.00;5.30;;;;;;;;;;5097190;28;20237;-65
2023/04/16 06:45:02;;;;;;;7.63;5.40;;;;;;;;;;5097230;28;20314;-65
2023/04/16 06:47:30;;;;;;;8.10;5.37;;;;;;;;;;5097302;28;20248;-65
2023/04/16 06:50:00;;;;;;;7.63;5.30;;;;;;;;;;5097387;28;20253;-65
2023/04/16 06:52:29;;;;;;;7.40;4.90;;;;;;;;;;5097758;28;20262;-65
2023/04/16 06:54:56;;;;;;;6.40;5.30;;;;;;;;;;5093003;28;20296;-65
2023/04/16 06:57:25;;;;;;;5.17;4.20;;;;;;;;;;5097337;28;20213;-65
2023/04/16 06:59:53;;;;;;;5.27;4.77;;;;;;;;;;5097041;28;20724;-66
2023/04/16 07:02:20;;;;;;;5.97;4.50;;;;;;;;;;5097563;28;20206;-63
2023/04/16 07:04:49;;;;;;;5.67;4.30;;;;;;;;;;5097704;28;20210;-64
2023/04/16 07:07:18;;;;;;;5.77;5.17;;;;;;;;;;5098109;28;20205;-64
2023/04/16 07:09:46;;;;;;;6.23;5.17;;;;;;;;;;5097683;28;20225;-64
2023/04/16 07:12:14;;;;;;;5.47;4.77;;;;;;;;;;5087278;28;20217;-65
2023/04/16 07:14:42;;;;;;;5.40;4.90;;;;;;;;;;5097371;28;20256;-64
2023/04/16 07:17:10;;;;;;;8.13;4.87;;;;;;;;;;5097459;28;20274;-64
2023/04/16 07:19:37;;;;;;;5.47;4.00;;;;;;;;;;5097524;28;20225;-64
2023/04/16 07:22:06;;;;;;;6.37;4.70;;;;;;;;;;5097350;28;20284;-64
2023/04/16 07:24:35;;;;;;;4.57;4.20;;;;;;;;;;5097409;28;20648;-64
2023/04/16 07:27:03;;;;;;;5.83;5.23;;;;;;;;;;5097567;28;20212;-64
2023/04/16 07:29:31;;;;;;;7.17;5.10;;;;;;;;;;5097524;28;20240;-64
2023/04/16 07:31:59;;;;;;;5.10;4.57;;;;;;;;;;5097320;28;20262;-64
2023/04/16 07:34:27;;;;;;;7.57;4.77;;;;;;;;;;5097237;28;20232;-64
2023/04/16 07:36:55;;;;;;;5.33;4.83;;;;;;;;;;5097241;28;20711;-64
2023/04/16 07:39:23;;;;;;;7.27;4.47;;;;;;;;;;5101971;28;20295;-64
2023/04/16 07:41:53;;;;;;;5.30;4.50;;;;;;;;;;5100424;28;20228;-64
2023/04/16 07:44:20;;;;;;;7.13;5.07;;;;;;;;;;5103546;28;20193;-64
2023/04/16 07:46:48;;;;;;;6.80;5.50;;;;;;;;;;5093807;28;20244;-64
2023/04/16 07:49:16;;;;;;;5.00;4.50;;;;;;;;;;5095029;28;20260;-64
2023/04/16 07:51:44;;;;;;;5.90;4.37;;;;;;;;;;5086029;28;20659;-65
2023/04/16 07:54:12;;;;;;;5.73;4.67;;;;;;;;;;5093880;28;20717;-64
2023/04/16 07:56:40;;;;;;;7.37;4.67;;;;;;;;;;5099994;28;20233;-64
2023/04/16 07:59:09;;;;;;;4.77;3.90;;;;;;;;;;5097300;28;20266;-64
2023/04/16 08:01:40;;;;;;;6.73;4.20;;;;;;;;;;5100341;28;20206;-64
2023/04/16 08:04:09;;;;;;;6.37;4.27;;;;;;;;;;5098116;28;20197;-64
2023/04/16 08:06:41;;;;;;;5.07;3.73;;;;;;;;;;5100591;28;20227;-64
2023/04/16 08:09:19;;;;;;;5.37;4.40;;;;;;;;;;5100484;28;20205;-64
2023/04/16 08:11:51;;;;;;;5.50;4.17;;;;;;;;;;5104496;28;20198;-64
2023/04/16 08:14:35;;;;;;;6.10;3.83;;;;;;;;;;5106052;28;20260;-64
2023/04/16 08:17:06;;;;;;;5.73;4.13;;;;;;;;;;5108916;28;20234;-64
2023/04/16 08:19:34;;;;;;;7.83;5.63;;;;;;;;;;5107447;28;20224;-64
2023/04/16 08:22:06;;;;;;;5.67;4.07;;;;;;;;;;5106725;28;20205;-64
2023/04/16 08:24:39;;;;;;;4.80;3.90;;;;;;;;;;5106419;28;20197;-65
2023/04/16 08:27:09;;;;;;;5.20;4.50;;;;;;;;;;5111733;28;20205;-64
2023/04/16 08:29:46;;;;;;;4.37;3.77;;;;;;;;;;5106051;28;20337;-64
2023/04/16 08:32:20;;;;;;;6.63;5.13;;;;;;;;;;5109360;28;20233;-64
2023/04/16 08:34:49;;;;;;;6.73;4.60;;;;;;;;;;5110095;28;20225;-64
2023/04/16 08:37:31;;;;;;;6.07;4.63;;;;;;;;;;5109875;28;20343;-64
2023/04/16 08:40:04;;;;;;;4.50;4.10;;;;;;;;;;5108603;28;20217;-64
2023/04/16 08:42:39;;;;;;;6.70;4.23;;;;;;;;;;5108959;28;20215;-65
2023/04/16 08:45:23;;;;;;;4.30;4.00;;;;;;;;;;5110146;28;20557;-64
2023/04/16 08:47:56;;;;;;;3.83;3.50;;;;;;;;;;5108056;28;20204;-64
2023/04/16 08:50:27;;;;;;;5.77;3.77;;;;;;;;;;5109607;28;20228;-64
2023/04/16 08:52:59;;;;;;;4.93;3.90;;;;;;;;;;5107863;28;20193;-65
2023/04/16 08:55:31;;;;;;;3.97;3.50;;;;;;;;;;5105159;28;20213;-64
2023/04/16 08:58:01;;;;;;;5.53;3.30;;;;;;;;;;5110713;28;20202;-64
2023/04/16 09:00:31;;;;;;;4.00;3.57;;;;;;;;;;5107180;28;20213;-64
2023/04/16 09:03:02;;;;;;;5.57;3.90;;;;;;;;;;5107465;27;20673;-64
2023/04/16 09:05:33;;;;;;;6.30;3.50;;;;;;;;;;5107912;28;20193;-65
2023/04/16 09:08:02;;;;;;;3.77;3.40;;;;;;;;;;5112007;28;20206;-64
2023/04/16 09:10:34;;;;;;;3.90;3.50;;;;;;;;;;5108416;28;20212;-64
2023/04/16 09:13:02;;;;;;;3.90;3.50;;;;;;;;;;5108774;28;20206;-64
2023/04/16 09:15:31;;;;;;;5.97;3.30;;;;;;;;;;5104482;28;20228;-65
2023/04/16 09:18:04;;;;;;;3.83;3.43;;;;;;;;;;5106781;28;20197;-64
2023/04/16 09:20:33;;;;;;;3.97;3.30;;;;;;;;;;5111385;28;20213;-64
2023/04/16 09:23:01;;;;;;;4.23;3.60;;;;;;;;;;5107341;27;20207;-64
2023/04/16 09:25:32;;;;;;;5.17;3.40;;;;;;;;;;5099327;28;20229;-65
2023/04/16 09:28:00;;;;;;;4.30;3.50;;;;;;;;;;5106954;28;20206;-65
2023/04/16 09:30:28;;;;;;;6.83;3.60;;;;;;;;;;5104541;28;20221;-65
2023/04/16 09:33:11;;;;;;;5.37;3.27;;;;;;;;;;5107413;28;20193;-65
2023/04/16 09:35:46;;;;;;;5.03;3.13;;;;;;;;;;5102656;28;20225;-65
2023/04/16 09:38:14;;;;;;;3.83;3.53;;;;;;;;;;5107489;28;20208;-65
2023/04/16 09:40:42;;;;;;;4.97;3.43;;;;;;;;;;5099492;28;20224;-65
2023/04/16 09:43:11;;;;;;;4.47;3.27;;;;;;;;;;5100539;28;20236;-65
2023/04/16 09:45:48;;;;;;;5.07;3.60;;;;;;;;;;5098201;28;20198;-65
2023/04/16 09:48:16;;;;;;;7.33;3.10;;;;;;;;;;5098725;28;20205;-64
2023/04/16 09:50:50;;;;;;;4.77;3.67;;;;;;;;;;5095370;28;20665;-64
2023/04/16 09:53:23;;;;;;;3.83;3.33;;;;;;;;;;5090079;28;20675;-64
2023/04/16 09:55:51;;;;;;;5.67;3.83;;;;;;;;;;5098310;28;20308;-64
2023/04/16 09:58:19;;;;;;;5.27;3.30;;;;;;;;;;5098573;28;20217;-65
2023/04/16 10:00:47;;;;;;;6.73;4.00;;;;;;;;;;5097650;28;20364;-64
2023/04/16 10:03:16;;;;;;;4.47;3.53;;;;;;;;;;5106767;28;20225;-64
2023/04/16 10:05:44;;;;;;;6.00;3.03;;;;;;;;;;5106129;28;20189;-63
2023/04/16 10:08:14;;;;;;;6.93;4.73;;;;;;;;;;5104247;28;20193;-65
2023/04/16 10:10:42;;;;;;;3.30;3.10;;;;;;;;;;5085249;28;20230;-64
2023/04/16 10:13:11;;;;;;;3.80;3.40;;;;;;;;;;5098355;28;20239;-64
2023/04/16 10:15:39;;;;;;;4.67;3.60;;;;;;;;;;5097885;28;20237;-65
2023/04/16 10:18:07;;;;;;;4.30;3.50;;;;;;;;;;5096877;28;20247;-64
2023/04/16 10:20:36;;;;;;;4.23;3.73;;;;;;;;;;5097983;28;20229;-64
2023/04/16 10:23:04;;;;;;;4.67;3.40;;;;;;;;;;5097870;28;20229;-64
2023/04/16 10:25:34;;;;;;;4.57;4.17;;;;;;;;;;5088824;28;20277;-64
2023/04/16 10:28:03;;;;;;;5.30;4.07;;;;;;;;;;5081857;28;20206;-63
2023/04/16 10:30:31;;;;;;;5.17;3.73;;;;;;;;;;5078269;28;20241;-65
2023/04/16 10:32:59;;;;;;;5.47;3.70;;;;;;;;;;5096111;28;20216;-65
2023/04/16 10:35:27;;;;;;;7.07;4.20;;;;;;;;;;5094500;28;20671;-66
2023/04/16 10:37:56;;;;;;;3.87;3.50;;;;;;;;;;5100952;28;20228;-66
2023/04/16 10:40:25;;;;;;;3.60;3.30;;;;;;;;;;5099756;28;20258;-66
2023/04/16 10:42:58;;;;;;;5.43;3.60;;;;;;;;;;5091775;28;20216;-67
2023/04/16 10:45:27;;;;;;;5.10;3.80;;;;;;;;;;5084697;28;20679;-66
2023/04/16 10:47:55;;;;;;;5.13;3.90;;;;;;;;;;5086256;28;20280;-66
2023/04/16 10:50:24;;;;;;;9.70;4.30;;;;;;;;;;5087299;28;20221;-64
2023/04/16 10:53:07;;;;;;;5.67;4.33;;;;;;;;;;5087788;28;20211;-68
2023/04/16 10:55:38;;;;;;;5.40;3.87;;;;;;;;;;5088722;28;20224;-70
2023/04/16 11:01:02;;;;;;;5.13;4.10;;;;;;;;;;5106738;27;20672;-66
2023/04/16 11:03:31;;;;;;;5.97;4.00;;;;;;;;;;5094709;28;20231;-66
2023/04/16 11:19:22;;;;;;;6.37;4.73;;;;;;;;;;5080180;28;20409;-64
2023/04/16 11:21:51;;;;;;;5.83;4.87;;;;;;;;;;5077385;28;20633;-63
2023/04/16 11:24:18;;;;;;;6.87;5.00;;;;;;;;;;5074465;28;20207;-62
2023/04/16 11:26:50;;;;;;;6.53;4.90;;;;;;;;;;5063244;28;20245;-62
2023/04/16 11:29:19;;;;;;;5.03;4.53;;;;;;;;;;5061262;28;20286;-63
2023/04/16 11:31:50;;;;;;;8.83;4.97;;;;;;;;;;5059272;28;20213;-63
2023/04/16 11:34:18;;;;;;;7.83;4.97;;;;;;;;;;5065590;28;20217;-65
2023/04/16 11:36:50;;;;;;;8.67;5.17;;;;;;;;;;5064480;28;20218;-64
2023/04/16 11:39:18;;;;;;;7.77;4.90;;;;;;;;;;5064980;28;20252;-64
2023/04/16 11:41:46;;;;;;;6.33;5.07;;;;;;;;;;5070899;28;20294;-64
2023/04/16 11:44:18;;;;;;;7.00;4.60;;;;;;;;;;5074003;28;20207;-64
2023/04/16 11:46:46;;;;;;;7.17;4.93;;;;;;;;;;5066797;28;20304;-64
2023/04/16 11:49:41;;;;;;;6.77;5.07;;;;;;;;;;5053698;28;20210;-61
2023/04/16 11:52:11;;;;;;;7.57;5.00;;;;;;;;;;5063822;28;21054;-63
2023/04/16 11:54:39;;;;;;;6.30;5.50;;;;;;;;;;5073728;28;20289;-64
2023/04/16 11:57:07;;;;;;;6.10;5.50;;;;;;;;;;5073755;28;20211;-65
2023/04/16 11:59:35;;;;;;;9.00;5.07;;;;;;;;;;5073512;28;20234;-65
2023/04/16 12:02:36;;;;;;;7.83;5.03;;;;;;;;;;5073488;28;20214;-64
2023/04/16 12:05:05;;;;;;;6.70;5.57;;;;;;;;;;5073499;28;20696;-65
2023/04/16 12:07:45;;;;;;;7.97;5.20;;;;;;;;;;5073795;28;20260;-66
2023/04/16 12:10:13;;;;;;;7.47;4.60;;;;;;;;;;5072252;28;20627;-66
2023/04/16 12:12:41;;;;;;;6.23;4.87;;;;;;;;;;5060049;28;20658;-65
2023/04/16 12:15:09;;;;;;;6.17;5.10;;;;;;;;;;5060051;28;20667;-67
2023/04/16 12:17:38;;;;;;;9.57;5.20;;;;;;;;;;5059797;28;20207;-67
2023/04/16 12:20:09;;;;;;;8.07;5.23;;;;;;;;;;5060255;28;20234;-67
2023/04/16 12:22:37;;;;;;;6.03;5.07;;;;;;;;;;5060201;28;20206;-67
2023/04/16 12:25:08;;;;;;;8.93;5.60;;;;;;;;;;5059137;28;20261;-68
2023/04/16 12:27:46;;;;;;;11.73;5.73;;;;;;;;;;5057959;28;20226;-64
2023/04/16 12:30:18;;;;;;;5.87;5.33;;;;;;;;;;5054208;28;20563;-64
2023/04/16 12:32:48;;;;;;;6.73;5.80;;;;;;;;;;5056498;28;20287;-63
2023/04/16 12:35:29;;;;;;;5.93;4.90;;;;;;;;;;5053246;28;20701;-64
2023/04/16 12:37:57;;;;;;;6.63;5.37;;;;;;;;;;5056246;28;20226;-64
2023/04/16 12:40:26;;;;;;;8.20;5.70;;;;;;;;;;5054813;28;20709;-64
2023/04/16 12:42:54;;;;;;;7.00;5.37;;;;;;;;;;5050894;28;20253;-64
2023/04/16 12:45:22;;;;;;;8.07;5.73;;;;;;;;;;5057401;28;20226;-63
2023/04/16 12:47:50;;;;;;;9.53;5.73;;;;;;;;;;5045943;28;20211;-63
2023/04/16 12:50:18;;;;;;;7.70;5.70;;;;;;;;;;5039676;28;20199;-63
2023/04/16 12:52:46;;;;;;;10.03;5.17;;;;;;;;;;5039797;28;20214;-63
2023/04/16 12:55:14;;;;;;;8.50;4.90;;;;;;;;;;5063365;28;20223;-63
2023/04/16 12:57:44;;;;;;;6.53;5.23;;;;;;;;;;5039746;28;20203;-64
2023/04/16 13:00:13;;;;;;;6.67;5.17;;;;;;;;;;5058203;28;20248;-64
2023/04/16 13:02:41;;;;;;;5.57;4.93;;;;;;;;;;5059086;28;20552;-67
2023/04/16 13:05:10;;;;;;;6.57;4.57;;;;;;;;;;5059282;28;20257;-63
2023/04/16 13:07:38;;;;;;;6.43;4.77;;;;;;;;;;5059489;28;20257;-66
2023/04/16 13:10:06;;;;;;;5.73;4.73;;;;;;;;;;5059547;28;20288;-67
2023/04/16 13:12:34;;;;;;;7.93;4.93;;;;;;;;;;5059180;28;20585;-69
2023/04/16 13:15:04;;;;;;;6.20;4.33;;;;;;;;;;5059339;28;20229;-67
2023/04/16 13:17:32;;;;;;;7.00;4.93;;;;;;;;;;5058850;28;20215;-66
2023/04/16 13:20:00;;;;;;;5.83;4.80;;;;;;;;;;5059359;28;20231;-66
2023/04/16 13:22:31;;;;;;;6.53;5.80;;;;;;;;;;5058003;28;20214;-66
2023/04/16 13:24:59;;;;;;;5.80;5.20;;;;;;;;;;5058927;28;20237;-65
2023/04/16 13:27:27;;;;;;;8.40;4.97;;;;;;;;;;5058907;28;20238;-64
2023/04/16 13:29:55;;;;;;;5.50;5.00;;;;;;;;;;5059069;28;20222;-63
2023/04/16 13:32:24;;;;;;;8.00;5.67;;;;;;;;;;5052810;28;20241;-65
2023/04/16 13:34:52;;;;;;;9.33;5.37;;;;;;;;;;5059018;28;20207;-65
2023/04/16 13:37:20;;;;;;;5.70;4.93;;;;;;;;;;5058802;28;20214;-64
2023/04/16 13:39:48;;;;;;;5.60;4.53;;;;;;;;;;5058973;28;20206;-70
2023/04/16 13:42:16;;;;;;;8.33;4.77;;;;;;;;;;5058643;28;20206;-69
2023/04/16 13:44:47;;;;;;;8.77;5.13;;;;;;;;;;5058458;28;20234;-74
2023/04/16 13:47:15;;;;;;;7.33;4.97;;;;;;;;;;5058328;28;20676;-68
2023/04/16 13:49:45;;;;;;;8.97;5.63;;;;;;;;;;5058410;28;20272;-69
2023/04/16 13:52:13;;;;;;;7.77;5.47;;;;;;;;;;5058486;28;20341;-69
2023/04/16 13:54:41;;;;;;;7.93;5.87;;;;;;;;;;5059811;28;20624;-67
2023/04/16 13:57:09;;;;;;;7.13;4.97;;;;;;;;;;5055169;28;20230;-73
2023/04/16 13:59:37;;;;;;;6.50;5.00;;;;;;;;;;5055033;28;20283;-65
2023/04/16 14:02:05;;;;;;;7.03;5.70;;;;;;;;;;5052475;28;20310;-64
2023/04/16 14:04:33;;;;;;;8.93;5.47;;;;;;;;;;5053834;28;20213;-65
2023/04/16 14:07:04;;;;;;;6.00;5.40;;;;;;;;;;5049071;28;20717;-63
2023/04/16 14:09:31;;;;;;;6.53;4.63;;;;;;;;;;5054880;28;20248;-62
2023/04/16 14:11:59;;;;;;;8.00;5.30;;;;;;;;;;5040069;28;20200;-63
2023/04/16 14:14:27;;;;;;;8.50;5.70;;;;;;;;;;5038113;28;20670;-63
2023/04/16 14:16:55;;;;;;;8.03;5.33;;;;;;;;;;5038082;28;20258;-63
2023/04/16 14:19:23;;;;;;;8.30;6.63;;;;;;;;;;5037586;28;20851;-64
2023/04/16 14:21:51;;;;;;;8.73;5.97;;;;;;;;;;5038222;28;20238;-64
2023/04/16 14:24:24;;;;;;;5.93;5.13;;;;;;;;;;5038156;28;20230;-64
2023/04/16 14:26:52;;;;;;;7.10;5.53;;;;;;;;;;5049793;28;20254;-62
2023/04/16 14:29:20;;;;;;;6.73;5.07;;;;;;;;;;5058038;28;20209;-64
2023/04/16 14:31:49;;;;;;;6.30;5.20;;;;;;;;;;5058012;28;20282;-63
2023/04/16 14:34:17;;;;;;;7.87;5.60;;;;;;;;;;5057290;28;20562;-64
2023/04/16 14:36:45;;;;;;;7.23;5.30;;;;;;;;;;5057584;28;20266;-65
2023/04/16 14:39:13;;;;;;;7.10;5.47;;;;;;;;;;5052449;28;20670;-62
2023/04/16 14:41:42;;;;;;;7.30;6.50;;;;;;;;;;5050716;28;20270;-64
2023/04/16 14:44:10;;;;;;;7.30;5.97;;;;;;;;;;5048379;28;20210;-64
2023/04/16 14:46:39;;;;;;;9.00;5.87;;;;;;;;;;5043074;28;20270;-64
2023/04/16 14:49:08;;;;;;;7.80;5.97;;;;;;;;;;5037647;28;20207;-63
2023/04/16 14:51:42;;;;;;;9.47;6.10;;;;;;;;;;5044681;28;20199;-64
2023/04/16 14:54:10;;;;;;;9.27;5.00;;;;;;;;;;5057515;28;20286;-64
2023/04/16 14:56:38;;;;;;;7.47;6.03;;;;;;;;;;5046289;28;20276;-63
2023/04/16 14:59:07;;;;;;;6.93;5.67;;;;;;;;;;5057474;28;20302;-64
2023/04/16 15:01:38;;;;;;;9.40;5.83;;;;;;;;;;5056995;28;20231;-64
2023/04/16 15:04:06;;;;;;;7.67;5.77;;;;;;;;;;5056996;28;20233;-64
2023/04/16 15:06:35;;;;;;;7.53;5.83;;;;;;;;;;5044407;28;20294;-63
2023/04/16 15:09:03;;;;;;;7.10;5.57;;;;;;;;;;5056996;28;20207;-63
2023/04/16 15:11:31;;;;;;;7.10;5.77;;;;;;;;;;5057284;28;20253;-63